sensor_id;sensor_type;location;lat;lon;timestamp;P1;durP1;ratioP1;P2;durP2;ratioP2
3567;SDS011;1798;48.486;9.232;2023-04-03T00:01:25;11.85;;;5.40;;
3567;SDS011;1798;48.486;9.232;2023-04-03T00:03:52;9.77;;;5.40;;
3567;SDS011;1798;48.486;9.232;2023-04-03T00:06:18;11.32;;;5.90;;
3567;SDS011;1798;48.486;9.232;2023-04-03T00:08:47;11.38;;;5.13;;
3567;SDS011;1798;48.486;9.232;2023-04-03T00:11:14;11.02;;;5.93;;
3567;SDS011;1798;48.486;9.232;2023-04-03T00:13:41;9.35;;;5.40;;
3567;SDS011;1798;48.486;9.232;2023-04-03T00:16:09;10.05;;;5.18;;
3567;SDS011;1798;48.486;9.232;2023-04-03T00:18:37;16.75;;;6.00;;
3567;SDS011;1798;48.486;9.232;2023-04-03T00:21:04;14.30;;;6.00;;
3567;SDS011;1798;48.486;9.232;2023-04-03T00:23:33;12.23;;;5.68;;
3567;SDS011;1798;48.486;9.232;2023-04-03T00:26:01;10.75;;;5.30;;
3567;SDS011;1798;48.486;9.232;2023-04-03T00:28:28;10.18;;;5.70;;
3567;SDS011;1798;48.486;9.232;2023-04-03T00:30:55;13.85;;;5.85;;
3567;SDS011;1798;48.486;9.232;2023-04-03T00:33:21;12.95;;;5.65;;
3567;SDS011;1798;48.486;9.232;2023-04-03T00:35:49;9.15;;;5.43;;
3567;SDS011;1798;48.486;9.232;2023-04-03T00:38:17;14.87;;;6.17;;
3567;SDS011;1798;48.486;9.232;2023-04-03T00:40:45;11.02;;;5.25;;
3567;SDS011;1798;48.486;9.232;2023-04-03T00:43:15;12.88;;;6.13;;
3567;SDS011;1798;48.486;9.232;2023-04-03T00:45:45;9.63;;;5.25;;
3567;SDS011;1798;48.486;9.232;2023-04-03T00:48:14;9.77;;;5.55;;
3567;SDS011;1798;48.486;9.232;2023-04-03T00:50:42;11.35;;;5.80;;
3567;SDS011;1798;48.486;9.232;2023-04-03T00:53:11;8.88;;;5.18;;
3567;SDS011;1798;48.486;9.232;2023-04-03T00:55:39;11.30;;;5.35;;
3567;SDS011;1798;48.486;9.232;2023-04-03T00:58:08;10.40;;;5.72;;
3567;SDS011;1798;48.486;9.232;2023-04-03T01:00:37;9.85;;;5.32;;
3567;SDS011;1798;48.486;9.232;2023-04-03T01:03:05;10.40;;;5.45;;
3567;SDS011;1798;48.486;9.232;2023-04-03T01:05:32;9.90;;;5.90;;
3567;SDS011;1798;48.486;9.232;2023-04-03T01:07:59;9.90;;;5.20;;
3567;SDS011;1798;48.486;9.232;2023-04-03T01:10:26;10.98;;;5.72;;
3567;SDS011;1798;48.486;9.232;2023-04-03T01:12:52;12.30;;;5.57;;
3567;SDS011;1798;48.486;9.232;2023-04-03T01:15:20;12.00;;;5.85;;
3567;SDS011;1798;48.486;9.232;2023-04-03T01:17:51;10.02;;;5.40;;
3567;SDS011;1798;48.486;9.232;2023-04-03T01:23:06;9.70;;;5.63;;
3567;SDS011;1798;48.486;9.232;2023-04-03T01:25:43;11.70;;;5.78;;
3567;SDS011;1798;48.486;9.232;2023-04-03T01:28:12;10.80;;;6.00;;
3567;SDS011;1798;48.486;9.232;2023-04-03T01:30:41;11.68;;;6.60;;
3567;SDS011;1798;48.486;9.232;2023-04-03T01:33:12;10.43;;;5.90;;
3567;SDS011;1798;48.486;9.232;2023-04-03T01:35:38;14.10;;;6.40;;
3567;SDS011;1798;48.486;9.232;2023-04-03T01:38:05;10.50;;;5.57;;
3567;SDS011;1798;48.486;9.232;2023-04-03T01:40:32;10.65;;;5.60;;
3567;SDS011;1798;48.486;9.232;2023-04-03T01:42:59;11.63;;;5.70;;
3567;SDS011;1798;48.486;9.232;2023-04-03T01:45:26;10.90;;;5.82;;
3567;SDS011;1798;48.486;9.232;2023-04-03T01:47:53;10.50;;;5.68;;
3567;SDS011;1798;48.486;9.232;2023-04-03T01:50:21;10.00;;;5.80;;
3567;SDS011;1798;48.486;9.232;2023-04-03T01:52:48;10.50;;;6.00;;
3567;SDS011;1798;48.486;9.232;2023-04-03T01:55:15;11.10;;;6.13;;
3567;SDS011;1798;48.486;9.232;2023-04-03T01:57:42;11.30;;;5.70;;
3567;SDS011;1798;48.486;9.232;2023-04-03T02:00:09;10.70;;;5.87;;
3567;SDS011;1798;48.486;9.232;2023-04-03T02:02:37;10.65;;;6.10;;
3567;SDS011;1798;48.486;9.232;2023-04-03T02:05:05;10.73;;;6.18;;
3567;SDS011;1798;48.486;9.232;2023-04-03T02:07:33;11.77;;;5.82;;
3567;SDS011;1798;48.486;9.232;2023-04-03T02:10:00;17.57;;;6.40;;
3567;SDS011;1798;48.486;9.232;2023-04-03T02:12:27;10.13;;;5.38;;
3567;SDS011;1798;48.486;9.232;2023-04-03T02:14:54;10.98;;;6.40;;
3567;SDS011;1798;48.486;9.232;2023-04-03T02:17:20;14.17;;;6.20;;
3567;SDS011;1798;48.486;9.232;2023-04-03T02:19:47;10.63;;;6.22;;
3567;SDS011;1798;48.486;9.232;2023-04-03T02:22:14;13.25;;;6.10;;
3567;SDS011;1798;48.486;9.232;2023-04-03T02:24:42;11.23;;;5.70;;
3567;SDS011;1798;48.486;9.232;2023-04-03T02:27:09;14.27;;;6.22;;
3567;SDS011;1798;48.486;9.232;2023-04-03T02:29:36;13.65;;;6.55;;
3567;SDS011;1798;48.486;9.232;2023-04-03T02:32:03;10.73;;;6.15;;
3567;SDS011;1798;48.486;9.232;2023-04-03T02:34:31;11.30;;;5.88;;
3567;SDS011;1798;48.486;9.232;2023-04-03T02:36:57;11.20;;;6.40;;
3567;SDS011;1798;48.486;9.232;2023-04-03T02:39:24;12.50;;;6.80;;
3567;SDS011;1798;48.486;9.232;2023-04-03T02:41:52;11.80;;;6.53;;
3567;SDS011;1798;48.486;9.232;2023-04-03T02:44:19;9.67;;;5.90;;
3567;SDS011;1798;48.486;9.232;2023-04-03T02:46:46;10.88;;;6.30;;
3567;SDS011;1798;48.486;9.232;2023-04-03T02:49:12;10.15;;;6.43;;
3567;SDS011;1798;48.486;9.232;2023-04-03T02:51:39;9.80;;;5.70;;
3567;SDS011;1798;48.486;9.232;2023-04-03T02:54:06;12.02;;;6.30;;
3567;SDS011;1798;48.486;9.232;2023-04-03T02:56:33;12.65;;;6.70;;
3567;SDS011;1798;48.486;9.232;2023-04-03T02:59:01;11.30;;;6.85;;
3567;SDS011;1798;48.486;9.232;2023-04-03T03:01:28;12.43;;;6.20;;
3567;SDS011;1798;48.486;9.232;2023-04-03T03:03:56;12.90;;;6.80;;
3567;SDS011;1798;48.486;9.232;2023-04-03T03:06:23;10.63;;;6.55;;
3567;SDS011;1798;48.486;9.232;2023-04-03T03:08:50;10.25;;;6.00;;
3567;SDS011;1798;48.486;9.232;2023-04-03T03:11:17;13.70;;;6.68;;
3567;SDS011;1798;48.486;9.232;2023-04-03T03:13:44;10.93;;;6.03;;
3567;SDS011;1798;48.486;9.232;2023-04-03T03:16:13;10.85;;;5.40;;
3567;SDS011;1798;48.486;9.232;2023-04-03T03:18:39;9.10;;;5.43;;
3567;SDS011;1798;48.486;9.232;2023-04-03T03:21:06;14.95;;;6.07;;
3567;SDS011;1798;48.486;9.232;2023-04-03T03:23:33;12.90;;;6.50;;
3567;SDS011;1798;48.486;9.232;2023-04-03T03:26:00;13.07;;;6.60;;
3567;SDS011;1798;48.486;9.232;2023-04-03T03:28:28;11.48;;;6.10;;
3567;SDS011;1798;48.486;9.232;2023-04-03T03:30:56;10.35;;;5.80;;
3567;SDS011;1798;48.486;9.232;2023-04-03T03:33:24;14.35;;;6.65;;
3567;SDS011;1798;48.486;9.232;2023-04-03T03:35:51;15.47;;;7.00;;
3567;SDS011;1798;48.486;9.232;2023-04-03T03:38:18;11.60;;;6.47;;
3567;SDS011;1798;48.486;9.232;2023-04-03T03:40:46;11.93;;;7.37;;
3567;SDS011;1798;48.486;9.232;2023-04-03T03:43:13;10.20;;;5.90;;
3567;SDS011;1798;48.486;9.232;2023-04-03T03:45:39;12.65;;;6.35;;
3567;SDS011;1798;48.486;9.232;2023-04-03T03:48:07;11.13;;;6.20;;
3567;SDS011;1798;48.486;9.232;2023-04-03T03:50:35;10.73;;;6.60;;
3567;SDS011;1798;48.486;9.232;2023-04-03T03:53:02;11.23;;;6.50;;
3567;SDS011;1798;48.486;9.232;2023-04-03T03:55:29;10.80;;;5.80;;
3567;SDS011;1798;48.486;9.232;2023-04-03T03:57:55;14.18;;;7.00;;
3567;SDS011;1798;48.486;9.232;2023-04-03T04:00:22;13.35;;;6.50;;
3567;SDS011;1798;48.486;9.232;2023-04-03T04:02:49;10.85;;;5.97;;
3567;SDS011;1798;48.486;9.232;2023-04-03T04:05:15;14.30;;;6.90;;
3567;SDS011;1798;48.486;9.232;2023-04-03T04:07:44;11.32;;;6.32;;
3567;SDS011;1798;48.486;9.232;2023-04-03T04:10:11;10.52;;;6.10;;
3567;SDS011;1798;48.486;9.232;2023-04-03T04:12:38;12.38;;;5.53;;
3567;SDS011;1798;48.486;9.232;2023-04-03T04:15:06;11.80;;;5.90;;
3567;SDS011;1798;48.486;9.232;2023-04-03T04:17:33;10.45;;;5.20;;
3567;SDS011;1798;48.486;9.232;2023-04-03T04:20:00;12.80;;;5.40;;
3567;SDS011;1798;48.486;9.232;2023-04-03T04:22:27;11.88;;;5.55;;
3567;SDS011;1798;48.486;9.232;2023-04-03T04:24:56;10.07;;;5.03;;
3567;SDS011;1798;48.486;9.232;2023-04-03T04:27:22;9.05;;;4.90;;
3567;SDS011;1798;48.486;9.232;2023-04-03T04:29:49;10.80;;;4.82;;
3567;SDS011;1798;48.486;9.232;2023-04-03T04:32:16;13.20;;;6.30;;
3567;SDS011;1798;48.486;9.232;2023-04-03T04:34:42;10.77;;;5.50;;
3567;SDS011;1798;48.486;9.232;2023-04-03T04:37:09;10.65;;;6.13;;
3567;SDS011;1798;48.486;9.232;2023-04-03T04:39:36;12.40;;;5.72;;
3567;SDS011;1798;48.486;9.232;2023-04-03T04:42:04;13.82;;;5.57;;
3567;SDS011;1798;48.486;9.232;2023-04-03T04:44:32;9.60;;;5.88;;
3567;SDS011;1798;48.486;9.232;2023-04-03T04:46:58;9.20;;;5.80;;
3567;SDS011;1798;48.486;9.232;2023-04-03T04:49:25;10.35;;;5.93;;
3567;SDS011;1798;48.486;9.232;2023-04-03T04:51:52;9.35;;;5.85;;
3567;SDS011;1798;48.486;9.232;2023-04-03T04:54:19;11.98;;;6.10;;
3567;SDS011;1798;48.486;9.232;2023-04-03T04:56:45;13.80;;;5.57;;
3567;SDS011;1798;48.486;9.232;2023-04-03T04:59:13;11.85;;;5.80;;
3567;SDS011;1798;48.486;9.232;2023-04-03T05:01:40;10.67;;;5.77;;
3567;SDS011;1798;48.486;9.232;2023-04-03T05:04:07;9.52;;;5.97;;
3567;SDS011;1798;48.486;9.232;2023-04-03T05:06:34;11.25;;;6.25;;
3567;SDS011;1798;48.486;9.232;2023-04-03T05:09:01;10.15;;;5.90;;
3567;SDS011;1798;48.486;9.232;2023-04-03T05:11:27;10.07;;;5.90;;
3567;SDS011;1798;48.486;9.232;2023-04-03T05:13:54;10.90;;;5.40;;
3567;SDS011;1798;48.486;9.232;2023-04-03T05:16:22;12.90;;;5.53;;
3567;SDS011;1798;48.486;9.232;2023-04-03T05:18:49;12.02;;;6.57;;
3567;SDS011;1798;48.486;9.232;2023-04-03T05:21:16;10.00;;;5.80;;
3567;SDS011;1798;48.486;9.232;2023-04-03T05:23:43;11.40;;;6.20;;
3567;SDS011;1798;48.486;9.232;2023-04-03T05:26:09;13.47;;;5.93;;
3567;SDS011;1798;48.486;9.232;2023-04-03T05:28:36;12.27;;;6.70;;
3567;SDS011;1798;48.486;9.232;2023-04-03T05:31:03;10.15;;;5.72;;
3567;SDS011;1798;48.486;9.232;2023-04-03T05:33:31;9.82;;;5.35;;
3567;SDS011;1798;48.486;9.232;2023-04-03T05:36:01;10.20;;;5.50;;
3567;SDS011;1798;48.486;9.232;2023-04-03T05:38:29;12.37;;;6.73;;
3567;SDS011;1798;48.486;9.232;2023-04-03T05:40:55;15.77;;;6.78;;
3567;SDS011;1798;48.486;9.232;2023-04-03T05:43:22;11.07;;;5.70;;
3567;SDS011;1798;48.486;9.232;2023-04-03T05:45:49;10.65;;;5.80;;
3567;SDS011;1798;48.486;9.232;2023-04-03T05:48:15;10.77;;;5.85;;
3567;SDS011;1798;48.486;9.232;2023-04-03T05:50:44;15.75;;;5.60;;
3567;SDS011;1798;48.486;9.232;2023-04-03T05:53:11;9.93;;;5.10;;
3567;SDS011;1798;48.486;9.232;2023-04-03T05:55:42;12.00;;;4.90;;
3567;SDS011;1798;48.486;9.232;2023-04-03T05:58:09;10.15;;;4.65;;
3567;SDS011;1798;48.486;9.232;2023-04-03T06:00:35;11.02;;;4.60;;
3567;SDS011;1798;48.486;9.232;2023-04-03T06:03:02;13.55;;;4.90;;
3567;SDS011;1798;48.486;9.232;2023-04-03T06:05:29;8.57;;;4.90;;
3567;SDS011;1798;48.486;9.232;2023-04-03T06:07:57;9.82;;;4.88;;
3567;SDS011;1798;48.486;9.232;2023-04-03T06:10:24;11.75;;;4.80;;
3567;SDS011;1798;48.486;9.232;2023-04-03T06:12:51;10.75;;;3.97;;
3567;SDS011;1798;48.486;9.232;2023-04-03T06:15:18;12.45;;;4.45;;
3567;SDS011;1798;48.486;9.232;2023-04-03T06:17:45;9.35;;;4.90;;
3567;SDS011;1798;48.486;9.232;2023-04-03T06:20:12;7.57;;;4.38;;
3567;SDS011;1798;48.486;9.232;2023-04-03T06:22:39;8.40;;;4.78;;
3567;SDS011;1798;48.486;9.232;2023-04-03T06:25:08;11.00;;;4.40;;
3567;SDS011;1798;48.486;9.232;2023-04-03T06:27:36;8.68;;;4.22;;
3567;SDS011;1798;48.486;9.232;2023-04-03T06:30:03;9.80;;;4.30;;
3567;SDS011;1798;48.486;9.232;2023-04-03T06:32:31;10.30;;;5.18;;
3567;SDS011;1798;48.486;9.232;2023-04-03T06:34:58;11.40;;;4.70;;
3567;SDS011;1798;48.486;9.232;2023-04-03T06:37:25;10.50;;;4.50;;
3567;SDS011;1798;48.486;9.232;2023-04-03T06:39:53;9.77;;;4.68;;
3567;SDS011;1798;48.486;9.232;2023-04-03T06:42:22;9.98;;;5.60;;
3567;SDS011;1798;48.486;9.232;2023-04-03T06:44:48;11.17;;;5.43;;
3567;SDS011;1798;48.486;9.232;2023-04-03T06:47:16;12.55;;;4.90;;
3567;SDS011;1798;48.486;9.232;2023-04-03T06:49:43;10.52;;;5.30;;
3567;SDS011;1798;48.486;9.232;2023-04-03T06:52:10;9.40;;;5.60;;
3567;SDS011;1798;48.486;9.232;2023-04-03T06:54:38;13.32;;;6.35;;
3567;SDS011;1798;48.486;9.232;2023-04-03T06:57:05;9.75;;;4.90;;
3567;SDS011;1798;48.486;9.232;2023-04-03T06:59:34;10.98;;;5.78;;
3567;SDS011;1798;48.486;9.232;2023-04-03T07:02:04;9.85;;;5.50;;
3567;SDS011;1798;48.486;9.232;2023-04-03T07:04:47;14.40;;;5.45;;
3567;SDS011;1798;48.486;9.232;2023-04-03T07:07:14;11.30;;;5.47;;
3567;SDS011;1798;48.486;9.232;2023-04-03T07:09:42;11.13;;;5.03;;
3567;SDS011;1798;48.486;9.232;2023-04-03T07:12:09;11.70;;;4.80;;
3567;SDS011;1798;48.486;9.232;2023-04-03T07:14:40;10.82;;;5.10;;
3567;SDS011;1798;48.486;9.232;2023-04-03T07:17:07;10.25;;;4.80;;
3567;SDS011;1798;48.486;9.232;2023-04-03T07:19:37;11.45;;;5.32;;
3567;SDS011;1798;48.486;9.232;2023-04-03T07:22:03;11.20;;;5.35;;
3567;SDS011;1798;48.486;9.232;2023-04-03T07:24:30;9.88;;;4.88;;
3567;SDS011;1798;48.486;9.232;2023-04-03T07:26:57;10.18;;;5.35;;
3567;SDS011;1798;48.486;9.232;2023-04-03T07:29:23;10.68;;;5.38;;
3567;SDS011;1798;48.486;9.232;2023-04-03T07:31:52;10.30;;;4.90;;
3567;SDS011;1798;48.486;9.232;2023-04-03T07:34:20;12.70;;;5.50;;
3567;SDS011;1798;48.486;9.232;2023-04-03T07:36:47;11.48;;;4.90;;
3567;SDS011;1798;48.486;9.232;2023-04-03T07:39:14;10.32;;;5.25;;
3567;SDS011;1798;48.486;9.232;2023-04-03T07:41:45;18.73;;;5.63;;
3567;SDS011;1798;48.486;9.232;2023-04-03T07:44:11;11.73;;;4.80;;
3567;SDS011;1798;48.486;9.232;2023-04-03T07:46:38;11.55;;;5.82;;
3567;SDS011;1798;48.486;9.232;2023-04-03T07:49:07;12.00;;;4.95;;
3567;SDS011;1798;48.486;9.232;2023-04-03T07:51:34;10.30;;;5.03;;
3567;SDS011;1798;48.486;9.232;2023-04-03T07:54:01;10.73;;;4.97;;
3567;SDS011;1798;48.486;9.232;2023-04-03T07:56:27;9.68;;;5.05;;
3567;SDS011;1798;48.486;9.232;2023-04-03T07:58:54;18.40;;;5.10;;
3567;SDS011;1798;48.486;9.232;2023-04-03T08:01:21;11.77;;;4.73;;
3567;SDS011;1798;48.486;9.232;2023-04-03T08:03:48;9.52;;;5.20;;
3567;SDS011;1798;48.486;9.232;2023-04-03T08:06:17;9.15;;;5.25;;
3567;SDS011;1798;48.486;9.232;2023-04-03T08:08:44;15.98;;;4.97;;
3567;SDS011;1798;48.486;9.232;2023-04-03T08:11:10;9.98;;;4.60;;
3567;SDS011;1798;48.486;9.232;2023-04-03T08:13:37;10.38;;;5.18;;
3567;SDS011;1798;48.486;9.232;2023-04-03T08:16:07;8.73;;;4.93;;
3567;SDS011;1798;48.486;9.232;2023-04-03T08:18:35;8.90;;;4.80;;
3567;SDS011;1798;48.486;9.232;2023-04-03T08:21:06;10.38;;;5.05;;
3567;SDS011;1798;48.486;9.232;2023-04-03T08:23:35;10.80;;;5.15;;
3567;SDS011;1798;48.486;9.232;2023-04-03T08:26:06;8.80;;;4.70;;
3567;SDS011;1798;48.486;9.232;2023-04-03T08:28:34;10.88;;;5.60;;
3567;SDS011;1798;48.486;9.232;2023-04-03T08:31:05;13.45;;;5.07;;
3567;SDS011;1798;48.486;9.232;2023-04-03T08:33:33;11.73;;;5.20;;
3567;SDS011;1798;48.486;9.232;2023-04-03T08:36:03;10.82;;;5.65;;
3567;SDS011;1798;48.486;9.232;2023-04-03T08:38:30;11.77;;;5.45;;
3567;SDS011;1798;48.486;9.232;2023-04-03T08:41:04;10.85;;;4.93;;
3567;SDS011;1798;48.486;9.232;2023-04-03T08:43:37;11.15;;;5.15;;
3567;SDS011;1798;48.486;9.232;2023-04-03T08:46:14;11.20;;;5.47;;
3567;SDS011;1798;48.486;9.232;2023-04-03T08:48:43;11.73;;;5.75;;
3567;SDS011;1798;48.486;9.232;2023-04-03T08:51:11;10.48;;;5.18;;
3567;SDS011;1798;48.486;9.232;2023-04-03T08:53:40;9.73;;;5.38;;
3567;SDS011;1798;48.486;9.232;2023-04-03T08:56:10;9.15;;;5.10;;
3567;SDS011;1798;48.486;9.232;2023-04-03T08:58:41;9.40;;;5.10;;
3567;SDS011;1798;48.486;9.232;2023-04-03T09:01:14;8.88;;;4.80;;
3567;SDS011;1798;48.486;9.232;2023-04-03T09:03:44;9.25;;;4.97;;
3567;SDS011;1798;48.486;9.232;2023-04-03T09:06:12;10.65;;;5.05;;
3567;SDS011;1798;48.486;9.232;2023-04-03T09:08:43;10.93;;;5.18;;
3567;SDS011;1798;48.486;9.232;2023-04-03T09:11:15;11.77;;;5.07;;
3567;SDS011;1798;48.486;9.232;2023-04-03T09:13:48;12.18;;;5.10;;
3567;SDS011;1798;48.486;9.232;2023-04-03T09:16:25;10.68;;;4.85;;
3567;SDS011;1798;48.486;9.232;2023-04-03T09:18:57;10.63;;;5.70;;
3567;SDS011;1798;48.486;9.232;2023-04-03T09:21:31;10.70;;;5.70;;
3567;SDS011;1798;48.486;9.232;2023-04-03T09:24:02;15.73;;;5.30;;
3567;SDS011;1798;48.486;9.232;2023-04-03T09:26:34;10.70;;;5.90;;
3567;SDS011;1798;48.486;9.232;2023-04-03T09:29:04;8.47;;;4.63;;
3567;SDS011;1798;48.486;9.232;2023-04-03T09:31:36;9.20;;;5.20;;
3567;SDS011;1798;48.486;9.232;2023-04-03T09:34:05;10.30;;;4.70;;
3567;SDS011;1798;48.486;9.232;2023-04-03T09:36:39;10.63;;;5.07;;
3567;SDS011;1798;48.486;9.232;2023-04-03T09:39:10;10.27;;;5.20;;
3567;SDS011;1798;48.486;9.232;2023-04-03T09:41:43;10.45;;;4.90;;
3567;SDS011;1798;48.486;9.232;2023-04-03T09:44:22;11.55;;;5.30;;
3567;SDS011;1798;48.486;9.232;2023-04-03T09:46:50;11.55;;;4.70;;
3567;SDS011;1798;48.486;9.232;2023-04-03T09:49:17;10.88;;;5.15;;
3567;SDS011;1798;48.486;9.232;2023-04-03T09:51:45;11.60;;;5.00;;
3567;SDS011;1798;48.486;9.232;2023-04-03T09:54:25;12.75;;;6.07;;
3567;SDS011;1798;48.486;9.232;2023-04-03T09:56:59;10.48;;;5.07;;
3567;SDS011;1798;48.486;9.232;2023-04-03T09:59:28;10.07;;;5.50;;
3567;SDS011;1798;48.486;9.232;2023-04-03T10:01:57;14.15;;;6.50;;
3567;SDS011;1798;48.486;9.232;2023-04-03T10:04:25;10.88;;;5.35;;
3567;SDS011;1798;48.486;9.232;2023-04-03T10:06:53;11.75;;;5.50;;
3567;SDS011;1798;48.486;9.232;2023-04-03T10:09:21;16.70;;;5.70;;
3567;SDS011;1798;48.486;9.232;2023-04-03T10:12:00;13.60;;;6.20;;
3567;SDS011;1798;48.486;9.232;2023-04-03T10:14:30;12.43;;;5.35;;
3567;SDS011;1798;48.486;9.232;2023-04-03T10:16:59;11.25;;;4.53;;
3567;SDS011;1798;48.486;9.232;2023-04-03T10:19:32;17.67;;;5.40;;
3567;SDS011;1798;48.486;9.232;2023-04-03T10:22:02;11.98;;;4.90;;
3567;SDS011;1798;48.486;9.232;2023-04-03T10:24:35;9.88;;;4.80;;
3567;SDS011;1798;48.486;9.232;2023-04-03T10:27:05;16.17;;;5.40;;
3567;SDS011;1798;48.486;9.232;2023-04-03T10:29:38;13.53;;;5.60;;
3567;SDS011;1798;48.486;9.232;2023-04-03T10:32:13;9.65;;;4.90;;
3567;SDS011;1798;48.486;9.232;2023-04-03T10:34:47;11.55;;;5.22;;
3567;SDS011;1798;48.486;9.232;2023-04-03T10:37:20;12.38;;;5.30;;
3567;SDS011;1798;48.486;9.232;2023-04-03T10:39:51;12.65;;;4.88;;
3567;SDS011;1798;48.486;9.232;2023-04-03T10:42:25;12.10;;;4.87;;
3567;SDS011;1798;48.486;9.232;2023-04-03T10:44:59;13.30;;;4.90;;
3567;SDS011;1798;48.486;9.232;2023-04-03T10:47:32;11.63;;;5.38;;
3567;SDS011;1798;48.486;9.232;2023-04-03T10:50:06;11.70;;;5.30;;
3567;SDS011;1798;48.486;9.232;2023-04-03T10:52:41;12.43;;;5.38;;
3567;SDS011;1798;48.486;9.232;2023-04-03T10:55:15;11.00;;;5.45;;
3567;SDS011;1798;48.486;9.232;2023-04-03T10:57:50;13.07;;;4.70;;
3567;SDS011;1798;48.486;9.232;2023-04-03T11:00:18;12.30;;;5.30;;
3567;SDS011;1798;48.486;9.232;2023-04-03T11:02:48;13.25;;;5.20;;
3567;SDS011;1798;48.486;9.232;2023-04-03T11:05:18;13.30;;;5.47;;
3567;SDS011;1798;48.486;9.232;2023-04-03T11:07:52;9.80;;;5.20;;
3567;SDS011;1798;48.486;9.232;2023-04-03T11:10:21;12.85;;;4.88;;
3567;SDS011;1798;48.486;9.232;2023-04-03T11:12:52;11.07;;;5.00;;
3567;SDS011;1798;48.486;9.232;2023-04-03T11:15:23;12.80;;;5.07;;
3567;SDS011;1798;48.486;9.232;2023-04-03T11:17:51;12.75;;;4.68;;
3567;SDS011;1798;48.486;9.232;2023-04-03T11:20:22;10.57;;;4.80;;
3567;SDS011;1798;48.486;9.232;2023-04-03T11:22:53;9.77;;;5.00;;
3567;SDS011;1798;48.486;9.232;2023-04-03T11:25:25;9.98;;;4.60;;
3567;SDS011;1798;48.486;9.232;2023-04-03T11:27:55;9.10;;;4.75;;
3567;SDS011;1798;48.486;9.232;2023-04-03T11:30:23;14.88;;;5.10;;
3567;SDS011;1798;48.486;9.232;2023-04-03T11:32:58;9.15;;;4.90;;
3567;SDS011;1798;48.486;9.232;2023-04-03T11:35:32;14.60;;;5.50;;
3567;SDS011;1798;48.486;9.232;2023-04-03T11:37:59;12.07;;;5.03;;
3567;SDS011;1798;48.486;9.232;2023-04-03T11:40:28;27.63;;;5.38;;
3567;SDS011;1798;48.486;9.232;2023-04-03T11:43:04;16.40;;;4.90;;
3567;SDS011;1798;48.486;9.232;2023-04-03T11:45:37;13.07;;;4.97;;
3567;SDS011;1798;48.486;9.232;2023-04-03T11:48:09;10.90;;;4.60;;
3567;SDS011;1798;48.486;9.232;2023-04-03T11:57:11;11.88;;;4.90;;
3567;SDS011;1798;48.486;9.232;2023-04-03T11:59:50;10.98;;;4.70;;
3567;SDS011;1798;48.486;9.232;2023-04-03T12:02:36;12.03;;;4.97;;
3567;SDS011;1798;48.486;9.232;2023-04-03T12:05:24;10.90;;;4.97;;
3567;SDS011;1798;48.486;9.232;2023-04-03T12:16:30;9.30;;;4.97;;
3567;SDS011;1798;48.486;9.232;2023-04-03T12:19:00;14.57;;;5.15;;
3567;SDS011;1798;48.486;9.232;2023-04-03T12:24:32;17.15;;;5.63;;
3567;SDS011;1798;48.486;9.232;2023-04-03T12:27:05;10.48;;;5.30;;
3567;SDS011;1798;48.486;9.232;2023-04-03T12:29:42;11.07;;;4.60;;
3567;SDS011;1798;48.486;9.232;2023-04-03T12:32:17;10.05;;;4.80;;
3567;SDS011;1798;48.486;9.232;2023-04-03T12:35:02;13.57;;;5.50;;
3567;SDS011;1798;48.486;9.232;2023-04-03T12:37:41;10.90;;;4.57;;
3567;SDS011;1798;48.486;9.232;2023-04-03T12:40:16;14.65;;;5.20;;
3567;SDS011;1798;48.486;9.232;2023-04-03T12:43:07;10.85;;;4.60;;
3567;SDS011;1798;48.486;9.232;2023-04-03T12:45:43;11.57;;;5.23;;
3567;SDS011;1798;48.486;9.232;2023-04-03T12:48:16;10.98;;;4.90;;
3567;SDS011;1798;48.486;9.232;2023-04-03T12:50:45;12.03;;;5.50;;
3567;SDS011;1798;48.486;9.232;2023-04-03T12:53:13;9.05;;;4.45;;
3567;SDS011;1798;48.486;9.232;2023-04-03T12:55:43;10.38;;;4.95;;
3567;SDS011;1798;48.486;9.232;2023-04-03T12:58:13;15.13;;;5.28;;
3567;SDS011;1798;48.486;9.232;2023-04-03T13:00:41;12.60;;;5.00;;
3567;SDS011;1798;48.486;9.232;2023-04-03T13:03:19;11.02;;;4.72;;
3567;SDS011;1798;48.486;9.232;2023-04-03T13:05:49;11.10;;;5.20;;
3567;SDS011;1798;48.486;9.232;2023-04-03T13:08:15;11.00;;;4.25;;
3567;SDS011;1798;48.486;9.232;2023-04-03T13:10:50;15.95;;;5.40;;
3567;SDS011;1798;48.486;9.232;2023-04-03T13:13:18;21.50;;;4.65;;
3567;SDS011;1798;48.486;9.232;2023-04-03T13:15:46;11.27;;;4.82;;
3567;SDS011;1798;48.486;9.232;2023-04-03T13:18:23;11.83;;;4.70;;
3567;SDS011;1798;48.486;9.232;2023-04-03T13:20:52;10.77;;;4.78;;
3567;SDS011;1798;48.486;9.232;2023-04-03T13:23:19;13.23;;;4.65;;
3567;SDS011;1798;48.486;9.232;2023-04-03T13:25:48;13.50;;;4.43;;
3567;SDS011;1798;48.486;9.232;2023-04-03T13:28:16;13.48;;;4.30;;
3567;SDS011;1798;48.486;9.232;2023-04-03T13:30:54;10.52;;;4.80;;
3567;SDS011;1798;48.486;9.232;2023-04-03T13:33:26;13.70;;;4.95;;
3567;SDS011;1798;48.486;9.232;2023-04-03T13:35:54;10.32;;;4.50;;
3567;SDS011;1798;48.486;9.232;2023-04-03T13:38:24;13.32;;;4.60;;
3567;SDS011;1798;48.486;9.232;2023-04-03T13:40:54;12.88;;;4.97;;
3567;SDS011;1798;48.486;9.232;2023-04-03T13:43:23;11.60;;;4.80;;
3567;SDS011;1798;48.486;9.232;2023-04-03T13:45:56;13.20;;;4.30;;
3567;SDS011;1798;48.486;9.232;2023-04-03T13:48:27;10.00;;;4.45;;
3567;SDS011;1798;48.486;9.232;2023-04-03T13:51:03;15.05;;;5.70;;
3567;SDS011;1798;48.486;9.232;2023-04-03T13:53:32;10.75;;;4.10;;
3567;SDS011;1798;48.486;9.232;2023-04-03T13:56:04;17.60;;;4.47;;
3567;SDS011;1798;48.486;9.232;2023-04-03T13:58:33;10.68;;;4.70;;
3567;SDS011;1798;48.486;9.232;2023-04-03T14:01:06;14.23;;;4.60;;
3567;SDS011;1798;48.486;9.232;2023-04-03T14:03:40;12.52;;;4.88;;
3567;SDS011;1798;48.486;9.232;2023-04-03T14:06:10;11.07;;;4.53;;
3567;SDS011;1798;48.486;9.232;2023-04-03T14:08:40;9.83;;;4.60;;
3567;SDS011;1798;48.486;9.232;2023-04-03T14:11:08;9.00;;;4.15;;
3567;SDS011;1798;48.486;9.232;2023-04-03T14:13:40;18.00;;;4.70;;
3567;SDS011;1798;48.486;9.232;2023-04-03T14:16:07;10.93;;;4.40;;
3567;SDS011;1798;48.486;9.232;2023-04-03T14:18:34;9.77;;;4.45;;
3567;SDS011;1798;48.486;9.232;2023-04-03T14:21:03;12.25;;;4.55;;
3567;SDS011;1798;48.486;9.232;2023-04-03T14:23:30;11.80;;;5.57;;
3567;SDS011;1798;48.486;9.232;2023-04-03T14:25:58;13.15;;;4.50;;
3567;SDS011;1798;48.486;9.232;2023-04-03T14:28:25;19.25;;;5.10;;
3567;SDS011;1798;48.486;9.232;2023-04-03T14:30:52;10.60;;;4.30;;
3567;SDS011;1798;48.486;9.232;2023-04-03T14:33:20;11.10;;;4.50;;
3567;SDS011;1798;48.486;9.232;2023-04-03T14:35:47;11.73;;;5.13;;
3567;SDS011;1798;48.486;9.232;2023-04-03T14:38:21;11.50;;;4.32;;
3567;SDS011;1798;48.486;9.232;2023-04-03T14:40:51;11.18;;;4.50;;
3567;SDS011;1798;48.486;9.232;2023-04-03T14:43:18;10.88;;;5.20;;
3567;SDS011;1798;48.486;9.232;2023-04-03T14:45:46;13.93;;;5.18;;
3567;SDS011;1798;48.486;9.232;2023-04-03T14:48:15;14.65;;;5.05;;
3567;SDS011;1798;48.486;9.232;2023-04-03T14:50:45;10.20;;;4.80;;
3567;SDS011;1798;48.486;9.232;2023-04-03T14:53:12;12.48;;;5.00;;
3567;SDS011;1798;48.486;9.232;2023-04-03T14:55:41;15.65;;;5.05;;
3567;SDS011;1798;48.486;9.232;2023-04-03T14:58:09;14.63;;;4.28;;
3567;SDS011;1798;48.486;9.232;2023-04-03T15:00:39;12.07;;;3.92;;
3567;SDS011;1798;48.486;9.232;2023-04-03T15:03:08;14.77;;;4.95;;
3567;SDS011;1798;48.486;9.232;2023-04-03T15:05:39;10.68;;;4.70;;
3567;SDS011;1798;48.486;9.232;2023-04-03T15:08:08;9.25;;;4.20;;
3567;SDS011;1798;48.486;9.232;2023-04-03T15:10:44;14.52;;;4.47;;
3567;SDS011;1798;48.486;9.232;2023-04-03T15:13:11;23.10;;;4.57;;
3567;SDS011;1798;48.486;9.232;2023-04-03T15:15:38;11.07;;;4.93;;
3567;SDS011;1798;48.486;9.232;2023-04-03T15:18:05;12.10;;;4.50;;
3567;SDS011;1798;48.486;9.232;2023-04-03T15:20:32;13.18;;;4.93;;
3567;SDS011;1798;48.486;9.232;2023-04-03T15:23:00;12.40;;;4.68;;
3567;SDS011;1798;48.486;9.232;2023-04-03T15:25:27;13.00;;;4.88;;
3567;SDS011;1798;48.486;9.232;2023-04-03T15:27:55;16.65;;;5.13;;
3567;SDS011;1798;48.486;9.232;2023-04-03T15:30:22;11.23;;;4.60;;
3567;SDS011;1798;48.486;9.232;2023-04-03T15:32:49;16.73;;;4.47;;
3567;SDS011;1798;48.486;9.232;2023-04-03T15:35:18;11.50;;;4.70;;